sensor_id;sensor_type;location;lat;lon;timestamp;P1;durP1;ratioP1;P2;durP2;ratioP2
297;SDS011;133;49.626;9.680;2024-03-17T00:00:50;4.57;;;4.27;;
297;SDS011;133;49.626;9.680;2024-03-17T00:03:15;4.07;;;3.87;;
297;SDS011;133;49.626;9.680;2024-03-17T00:05:41;6.43;;;4.77;;
297;SDS011;133;49.626;9.680;2024-03-17T00:08:06;5.77;;;4.17;;
297;SDS011;133;49.626;9.680;2024-03-17T00:10:33;7.70;;;4.20;;
297;SDS011;133;49.626;9.680;2024-03-17T00:12:59;5.20;;;4.90;;
297;SDS011;133;49.626;9.680;2024-03-17T00:15:25;5.33;;;4.57;;
297;SDS011;133;49.626;9.680;2024-03-17T00:17:52;4.57;;;4.27;;
297;SDS011;133;49.626;9.680;2024-03-17T00:20:18;5.93;;;4.73;;
297;SDS011;133;49.626;9.680;2024-03-17T00:22:48;4.70;;;4.40;;
297;SDS011;133;49.626;9.680;2024-03-17T00:25:14;4.93;;;4.53;;
297;SDS011;133;49.626;9.680;2024-03-17T00:27:40;4.60;;;4.30;;
297;SDS011;133;49.626;9.680;2024-03-17T00:30:10;5.57;;;4.93;;
297;SDS011;133;49.626;9.680;2024-03-17T00:32:40;5.00;;;4.40;;
297;SDS011;133;49.626;9.680;2024-03-17T00:35:07;4.53;;;4.27;;
297;SDS011;133;49.626;9.680;2024-03-17T00:37:34;4.97;;;4.67;;
297;SDS011;133;49.626;9.680;2024-03-17T00:40:03;5.30;;;4.87;;
297;SDS011;133;49.626;9.680;2024-03-17T00:42:29;5.67;;;5.40;;
297;SDS011;133;49.626;9.680;2024-03-17T00:44:55;5.43;;;5.00;;
297;SDS011;133;49.626;9.680;2024-03-17T00:47:21;9.70;;;5.53;;
297;SDS011;133;49.626;9.680;2024-03-17T00:49:46;5.23;;;4.93;;
297;SDS011;133;49.626;9.680;2024-03-17T00:52:15;5.17;;;4.87;;
297;SDS011;133;49.626;9.680;2024-03-17T00:54:41;5.50;;;5.20;;
297;SDS011;133;49.626;9.680;2024-03-17T00:57:06;4.97;;;4.67;;
297;SDS011;133;49.626;9.680;2024-03-17T00:59:32;5.50;;;5.20;;
297;SDS011;133;49.626;9.680;2024-03-17T01:01:58;5.03;;;4.77;;
297;SDS011;133;49.626;9.680;2024-03-17T01:04:23;5.40;;;4.87;;
297;SDS011;133;49.626;9.680;2024-03-17T01:06:49;5.80;;;4.23;;
297;SDS011;133;49.626;9.680;2024-03-17T01:09:15;5.83;;;4.80;;
297;SDS011;133;49.626;9.680;2024-03-17T01:11:40;4.87;;;4.57;;
297;SDS011;133;49.626;9.680;2024-03-17T01:14:06;4.63;;;4.33;;
297;SDS011;133;49.626;9.680;2024-03-17T01:16:32;4.97;;;4.70;;
297;SDS011;133;49.626;9.680;2024-03-17T01:18:58;5.17;;;4.60;;
297;SDS011;133;49.626;9.680;2024-03-17T01:21:24;6.10;;;4.73;;
297;SDS011;133;49.626;9.680;2024-03-17T01:23:50;7.10;;;4.23;;
297;SDS011;133;49.626;9.680;2024-03-17T01:26:16;5.07;;;4.50;;
297;SDS011;133;49.626;9.680;2024-03-17T01:28:42;4.33;;;4.03;;
297;SDS011;133;49.626;9.680;2024-03-17T01:31:07;6.50;;;4.40;;
297;SDS011;133;49.626;9.680;2024-03-17T01:33:34;5.80;;;5.50;;
297;SDS011;133;49.626;9.680;2024-03-17T01:36:00;7.63;;;5.30;;
297;SDS011;133;49.626;9.680;2024-03-17T01:38:25;6.17;;;5.70;;
297;SDS011;133;49.626;9.680;2024-03-17T01:40:51;6.20;;;5.90;;
297;SDS011;133;49.626;9.680;2024-03-17T01:43:17;6.70;;;5.73;;
297;SDS011;133;49.626;9.680;2024-03-17T01:45:43;7.70;;;6.33;;
297;SDS011;133;49.626;9.680;2024-03-17T01:48:11;7.60;;;5.80;;
297;SDS011;133;49.626;9.680;2024-03-17T01:50:42;8.37;;;5.97;;
297;SDS011;133;49.626;9.680;2024-03-17T01:53:11;7.67;;;5.90;;
297;SDS011;133;49.626;9.680;2024-03-17T01:55:38;6.80;;;5.53;;
297;SDS011;133;49.626;9.680;2024-03-17T01:58:07;5.83;;;5.00;;
297;SDS011;133;49.626;9.680;2024-03-17T02:00:35;5.30;;;4.67;;
297;SDS011;133;49.626;9.680;2024-03-17T02:03:04;4.53;;;4.23;;
297;SDS011;133;49.626;9.680;2024-03-17T02:05:31;4.97;;;4.67;;
297;SDS011;133;49.626;9.680;2024-03-17T02:07:57;4.63;;;4.33;;
297;SDS011;133;49.626;9.680;2024-03-17T02:10:23;4.90;;;4.60;;
297;SDS011;133;49.626;9.680;2024-03-17T02:12:48;4.90;;;4.60;;
297;SDS011;133;49.626;9.680;2024-03-17T02:15:14;6.17;;;5.00;;
297;SDS011;133;49.626;9.680;2024-03-17T02:17:39;5.00;;;4.60;;
297;SDS011;133;49.626;9.680;2024-03-17T02:20:05;6.67;;;5.23;;
297;SDS011;133;49.626;9.680;2024-03-17T02:22:33;5.67;;;4.83;;
297;SDS011;133;49.626;9.680;2024-03-17T02:25:05;7.10;;;5.20;;
297;SDS011;133;49.626;9.680;2024-03-17T02:27:34;4.87;;;4.57;;
297;SDS011;133;49.626;9.680;2024-03-17T02:30:01;5.13;;;4.87;;
297;SDS011;133;49.626;9.680;2024-03-17T02:32:34;5.73;;;4.53;;
297;SDS011;133;49.626;9.680;2024-03-17T02:35:00;4.93;;;4.63;;
297;SDS011;133;49.626;9.680;2024-03-17T02:37:26;7.10;;;4.87;;
297;SDS011;133;49.626;9.680;2024-03-17T02:39:52;6.40;;;5.30;;
297;SDS011;133;49.626;9.680;2024-03-17T02:42:18;6.20;;;5.63;;
297;SDS011;133;49.626;9.680;2024-03-17T02:44:44;10.33;;;5.40;;
297;SDS011;133;49.626;9.680;2024-03-17T02:47:10;7.50;;;5.60;;
297;SDS011;133;49.626;9.680;2024-03-17T02:49:39;5.73;;;5.20;;
297;SDS011;133;49.626;9.680;2024-03-17T02:52:08;6.67;;;5.80;;
297;SDS011;133;49.626;9.680;2024-03-17T02:54:35;7.47;;;5.17;;
297;SDS011;133;49.626;9.680;2024-03-17T02:57:02;7.60;;;6.20;;
297;SDS011;133;49.626;9.680;2024-03-17T02:59:28;5.50;;;4.83;;
297;SDS011;133;49.626;9.680;2024-03-17T03:01:54;5.90;;;4.97;;
297;SDS011;133;49.626;9.680;2024-03-17T03:04:20;5.90;;;4.83;;
297;SDS011;133;49.626;9.680;2024-03-17T03:06:46;4.70;;;4.30;;
297;SDS011;133;49.626;9.680;2024-03-17T03:09:11;8.57;;;5.83;;
297;SDS011;133;49.626;9.680;2024-03-17T03:11:45;6.23;;;5.20;;
297;SDS011;133;49.626;9.680;2024-03-17T03:14:12;5.10;;;4.60;;
297;SDS011;133;49.626;9.680;2024-03-17T03:16:37;5.30;;;4.87;;
297;SDS011;133;49.626;9.680;2024-03-17T03:19:03;5.53;;;5.30;;
297;SDS011;133;49.626;9.680;2024-03-17T03:21:30;5.87;;;5.53;;
297;SDS011;133;49.626;9.680;2024-03-17T03:23:56;6.03;;;4.67;;
297;SDS011;133;49.626;9.680;2024-03-17T03:26:22;5.67;;;4.77;;
297;SDS011;133;49.626;9.680;2024-03-17T03:28:48;5.50;;;5.20;;
297;SDS011;133;49.626;9.680;2024-03-17T03:31:15;10.20;;;4.87;;
297;SDS011;133;49.626;9.680;2024-03-17T03:33:42;4.90;;;4.60;;
297;SDS011;133;49.626;9.680;2024-03-17T03:36:11;4.57;;;4.20;;
297;SDS011;133;49.626;9.680;2024-03-17T03:38:38;5.50;;;4.47;;
297;SDS011;133;49.626;9.680;2024-03-17T03:43:37;4.73;;;4.47;;
297;SDS011;133;49.626;9.680;2024-03-17T03:46:03;5.80;;;5.07;;
297;SDS011;133;49.626;9.680;2024-03-17T03:48:29;4.83;;;4.53;;
297;SDS011;133;49.626;9.680;2024-03-17T03:50:55;4.87;;;4.57;;
297;SDS011;133;49.626;9.680;2024-03-17T03:53:21;5.63;;;4.93;;
297;SDS011;133;49.626;9.680;2024-03-17T03:55:47;6.20;;;5.20;;
297;SDS011;133;49.626;9.680;2024-03-17T03:58:14;5.27;;;4.97;;
297;SDS011;133;49.626;9.680;2024-03-17T04:00:39;5.10;;;4.87;;
297;SDS011;133;49.626;9.680;2024-03-17T04:03:05;6.47;;;5.83;;
297;SDS011;133;49.626;9.680;2024-03-17T04:05:31;6.97;;;5.23;;
297;SDS011;133;49.626;9.680;2024-03-17T04:07:57;6.53;;;5.63;;
297;SDS011;133;49.626;9.680;2024-03-17T04:10:23;8.77;;;6.50;;
297;SDS011;133;49.626;9.680;2024-03-17T04:12:49;6.00;;;5.77;;
297;SDS011;133;49.626;9.680;2024-03-17T04:15:16;6.70;;;5.30;;
297;SDS011;133;49.626;9.680;2024-03-17T04:17:42;5.60;;;4.53;;
297;SDS011;133;49.626;9.680;2024-03-17T04:20:07;7.30;;;5.40;;
297;SDS011;133;49.626;9.680;2024-03-17T04:22:35;5.73;;;4.90;;
297;SDS011;133;49.626;9.680;2024-03-17T04:25:01;5.63;;;5.30;;
297;SDS011;133;49.626;9.680;2024-03-17T04:27:28;6.77;;;5.23;;
297;SDS011;133;49.626;9.680;2024-03-17T04:29:55;5.43;;;5.17;;
297;SDS011;133;49.626;9.680;2024-03-17T04:32:22;6.30;;;5.00;;
297;SDS011;133;49.626;9.680;2024-03-17T04:34:49;6.90;;;5.10;;
297;SDS011;133;49.626;9.680;2024-03-17T04:37:15;6.33;;;5.33;;
297;SDS011;133;49.626;9.680;2024-03-17T04:39:42;5.03;;;4.43;;
297;SDS011;133;49.626;9.680;2024-03-17T04:42:09;5.57;;;5.23;;
297;SDS011;133;49.626;9.680;2024-03-17T04:44:36;6.10;;;4.90;;
297;SDS011;133;49.626;9.680;2024-03-17T04:47:03;5.20;;;4.90;;
297;SDS011;133;49.626;9.680;2024-03-17T04:49:41;5.90;;;4.73;;
297;SDS011;133;49.626;9.680;2024-03-17T04:52:08;4.97;;;4.67;;
297;SDS011;133;49.626;9.680;2024-03-17T04:54:35;7.40;;;5.03;;
297;SDS011;133;49.626;9.680;2024-03-17T04:57:01;6.20;;;5.57;;
297;SDS011;133;49.626;9.680;2024-03-17T04:59:27;6.27;;;4.87;;
297;SDS011;133;49.626;9.680;2024-03-17T05:01:58;4.63;;;4.33;;
297;SDS011;133;49.626;9.680;2024-03-17T05:04:24;6.43;;;4.93;;
297;SDS011;133;49.626;9.680;2024-03-17T05:06:50;6.27;;;5.00;;
297;SDS011;133;49.626;9.680;2024-03-17T05:09:16;6.63;;;5.07;;
297;SDS011;133;49.626;9.680;2024-03-17T05:11:41;7.47;;;5.10;;
297;SDS011;133;49.626;9.680;2024-03-17T05:14:07;5.57;;;5.17;;
297;SDS011;133;49.626;9.680;2024-03-17T05:16:33;7.10;;;5.63;;
297;SDS011;133;49.626;9.680;2024-03-17T05:18:59;5.00;;;4.73;;
297;SDS011;133;49.626;9.680;2024-03-17T05:21:25;5.90;;;5.60;;
297;SDS011;133;49.626;9.680;2024-03-17T05:23:51;6.23;;;5.70;;
297;SDS011;133;49.626;9.680;2024-03-17T05:26:17;5.57;;;5.30;;
297;SDS011;133;49.626;9.680;2024-03-17T05:28:43;8.83;;;5.90;;
297;SDS011;133;49.626;9.680;2024-03-17T05:31:09;5.43;;;5.13;;
297;SDS011;133;49.626;9.680;2024-03-17T05:33:35;7.13;;;5.80;;
297;SDS011;133;49.626;9.680;2024-03-17T05:36:01;6.30;;;5.20;;
297;SDS011;133;49.626;9.680;2024-03-17T05:38:28;7.37;;;5.10;;
297;SDS011;133;49.626;9.680;2024-03-17T05:40:58;5.77;;;5.47;;
297;SDS011;133;49.626;9.680;2024-03-17T05:43:29;6.60;;;5.10;;
297;SDS011;133;49.626;9.680;2024-03-17T05:45:59;5.80;;;5.40;;
297;SDS011;133;49.626;9.680;2024-03-17T05:48:31;6.43;;;5.17;;
297;SDS011;133;49.626;9.680;2024-03-17T05:50:57;4.73;;;4.43;;
297;SDS011;133;49.626;9.680;2024-03-17T05:53:27;7.90;;;5.40;;
297;SDS011;133;49.626;9.680;2024-03-17T05:55:53;5.70;;;5.30;;
297;SDS011;133;49.626;9.680;2024-03-17T05:58:20;6.40;;;5.53;;
297;SDS011;133;49.626;9.680;2024-03-17T06:00:46;6.73;;;5.30;;
297;SDS011;133;49.626;9.680;2024-03-17T06:03:11;6.90;;;5.63;;
297;SDS011;133;49.626;9.680;2024-03-17T06:05:38;5.93;;;5.13;;
297;SDS011;133;49.626;9.680;2024-03-17T06:08:07;5.43;;;5.13;;
297;SDS011;133;49.626;9.680;2024-03-17T06:10:34;7.93;;;6.17;;
297;SDS011;133;49.626;9.680;2024-03-17T06:13:01;6.73;;;5.77;;
297;SDS011;133;49.626;9.680;2024-03-17T06:15:27;9.57;;;6.93;;
297;SDS011;133;49.626;9.680;2024-03-17T06:17:54;9.37;;;7.57;;
297;SDS011;133;49.626;9.680;2024-03-17T06:20:20;10.73;;;7.27;;
297;SDS011;133;49.626;9.680;2024-03-17T06:22:47;8.47;;;6.40;;
297;SDS011;133;49.626;9.680;2024-03-17T06:25:13;5.53;;;5.27;;
297;SDS011;133;49.626;9.680;2024-03-17T06:27:38;6.10;;;5.30;;
297;SDS011;133;49.626;9.680;2024-03-17T06:30:04;6.27;;;5.50;;
297;SDS011;133;49.626;9.680;2024-03-17T06:32:31;7.50;;;6.40;;
297;SDS011;133;49.626;9.680;2024-03-17T06:35:03;6.40;;;6.00;;
297;SDS011;133;49.626;9.680;2024-03-17T06:37:29;8.47;;;7.00;;
297;SDS011;133;49.626;9.680;2024-03-17T06:39:54;9.33;;;6.73;;
297;SDS011;133;49.626;9.680;2024-03-17T06:42:20;8.30;;;6.73;;
297;SDS011;133;49.626;9.680;2024-03-17T06:44:46;9.40;;;7.73;;
297;SDS011;133;49.626;9.680;2024-03-17T06:47:11;8.57;;;6.97;;
297;SDS011;133;49.626;9.680;2024-03-17T06:49:37;8.23;;;7.20;;
297;SDS011;133;49.626;9.680;2024-03-17T06:52:03;8.57;;;7.00;;
297;SDS011;133;49.626;9.680;2024-03-17T06:54:29;6.87;;;6.37;;
297;SDS011;133;49.626;9.680;2024-03-17T06:56:57;8.43;;;7.30;;
297;SDS011;133;49.626;9.680;2024-03-17T06:59:22;10.80;;;6.70;;
297;SDS011;133;49.626;9.680;2024-03-17T07:01:48;7.20;;;6.73;;
297;SDS011;133;49.626;9.680;2024-03-17T07:04:15;7.20;;;6.30;;
297;SDS011;133;49.626;9.680;2024-03-17T07:06:41;6.50;;;6.10;;
297;SDS011;133;49.626;9.680;2024-03-17T07:09:07;6.40;;;5.97;;
297;SDS011;133;49.626;9.680;2024-03-17T07:11:33;7.00;;;6.57;;
297;SDS011;133;49.626;9.680;2024-03-17T07:13:59;7.33;;;6.40;;
297;SDS011;133;49.626;9.680;2024-03-17T07:16:25;7.90;;;6.67;;
297;SDS011;133;49.626;9.680;2024-03-17T07:18:51;7.87;;;7.27;;
297;SDS011;133;49.626;9.680;2024-03-17T07:21:21;8.80;;;7.53;;
297;SDS011;133;49.626;9.680;2024-03-17T07:23:47;8.20;;;6.97;;
297;SDS011;133;49.626;9.680;2024-03-17T07:26:13;9.20;;;7.10;;
297;SDS011;133;49.626;9.680;2024-03-17T07:28:39;9.33;;;7.60;;
297;SDS011;133;49.626;9.680;2024-03-17T07:31:06;8.50;;;6.93;;
297;SDS011;133;49.626;9.680;2024-03-17T07:33:33;9.53;;;7.20;;
297;SDS011;133;49.626;9.680;2024-03-17T07:35:59;9.60;;;6.87;;
297;SDS011;133;49.626;9.680;2024-03-17T07:38:26;9.77;;;7.10;;
297;SDS011;133;49.626;9.680;2024-03-17T07:40:56;8.70;;;7.00;;
297;SDS011;133;49.626;9.680;2024-03-17T07:43:33;7.60;;;6.80;;
297;SDS011;133;49.626;9.680;2024-03-17T07:46:00;10.80;;;8.33;;
297;SDS011;133;49.626;9.680;2024-03-17T07:48:31;8.23;;;7.83;;
297;SDS011;133;49.626;9.680;2024-03-17T07:51:01;9.60;;;7.33;;
297;SDS011;133;49.626;9.680;2024-03-17T07:53:31;23.03;;;19.17;;
297;SDS011;133;49.626;9.680;2024-03-17T07:56:01;14.40;;;12.60;;
297;SDS011;133;49.626;9.680;2024-03-17T07:58:29;9.70;;;8.20;;
297;SDS011;133;49.626;9.680;2024-03-17T08:00:58;7.87;;;7.37;;
297;SDS011;133;49.626;9.680;2024-03-17T08:03:28;8.63;;;7.90;;
297;SDS011;133;49.626;9.680;2024-03-17T08:05:58;7.50;;;7.03;;
297;SDS011;133;49.626;9.680;2024-03-17T08:08:24;8.23;;;7.60;;
297;SDS011;133;49.626;9.680;2024-03-17T08:10:50;10.87;;;8.10;;
297;SDS011;133;49.626;9.680;2024-03-17T08:13:16;10.00;;;7.27;;
297;SDS011;133;49.626;9.680;2024-03-17T08:15:43;9.90;;;7.43;;
297;SDS011;133;49.626;9.680;2024-03-17T08:18:10;8.33;;;7.93;;
297;SDS011;133;49.626;9.680;2024-03-17T08:20:39;8.33;;;7.90;;
297;SDS011;133;49.626;9.680;2024-03-17T08:23:07;8.93;;;7.30;;
297;SDS011;133;49.626;9.680;2024-03-17T08:25:33;8.50;;;7.07;;
297;SDS011;133;49.626;9.680;2024-03-17T08:28:00;13.90;;;7.40;;
297;SDS011;133;49.626;9.680;2024-03-17T08:30:26;9.53;;;7.80;;
297;SDS011;133;49.626;9.680;2024-03-17T08:32:52;7.30;;;6.97;;
297;SDS011;133;49.626;9.680;2024-03-17T08:35:17;8.13;;;7.00;;
297;SDS011;133;49.626;9.680;2024-03-17T08:37:43;7.77;;;7.40;;
297;SDS011;133;49.626;9.680;2024-03-17T08:40:10;7.20;;;6.80;;
297;SDS011;133;49.626;9.680;2024-03-17T08:42:37;8.63;;;7.33;;
297;SDS011;133;49.626;9.680;2024-03-17T08:45:02;7.90;;;7.33;;
297;SDS011;133;49.626;9.680;2024-03-17T08:47:29;8.97;;;8.10;;
297;SDS011;133;49.626;9.680;2024-03-17T08:49:54;9.40;;;7.70;;
297;SDS011;133;49.626;9.680;2024-03-17T08:52:20;9.07;;;8.57;;
297;SDS011;133;49.626;9.680;2024-03-17T08:54:46;10.30;;;8.13;;
297;SDS011;133;49.626;9.680;2024-03-17T08:57:13;8.63;;;8.07;;
297;SDS011;133;49.626;9.680;2024-03-17T08:59:39;10.23;;;7.77;;
297;SDS011;133;49.626;9.680;2024-03-17T09:02:05;9.17;;;7.80;;
297;SDS011;133;49.626;9.680;2024-03-17T09:04:36;8.40;;;7.53;;
297;SDS011;133;49.626;9.680;2024-03-17T09:07:02;8.30;;;7.40;;
297;SDS011;133;49.626;9.680;2024-03-17T09:09:29;11.73;;;8.07;;
297;SDS011;133;49.626;9.680;2024-03-17T09:11:54;10.80;;;8.67;;
297;SDS011;133;49.626;9.680;2024-03-17T09:14:20;8.87;;;7.47;;
297;SDS011;133;49.626;9.680;2024-03-17T09:16:47;12.50;;;8.30;;
297;SDS011;133;49.626;9.680;2024-03-17T09:19:13;10.93;;;8.07;;
297;SDS011;133;49.626;9.680;2024-03-17T09:21:38;10.57;;;8.10;;
297;SDS011;133;49.626;9.680;2024-03-17T09:24:05;9.63;;;8.00;;
297;SDS011;133;49.626;9.680;2024-03-17T09:26:32;8.70;;;7.70;;
297;SDS011;133;49.626;9.680;2024-03-17T09:29:03;8.23;;;7.60;;
297;SDS011;133;49.626;9.680;2024-03-17T09:31:29;10.70;;;7.17;;
297;SDS011;133;49.626;9.680;2024-03-17T09:33:55;8.90;;;7.30;;
297;SDS011;133;49.626;9.680;2024-03-17T09:36:21;8.93;;;7.20;;
297;SDS011;133;49.626;9.680;2024-03-17T09:38:47;8.30;;;7.03;;
297;SDS011;133;49.626;9.680;2024-03-17T09:41:22;6.43;;;5.80;;
297;SDS011;133;49.626;9.680;2024-03-17T09:43:54;6.33;;;5.97;;
297;SDS011;133;49.626;9.680;2024-03-17T09:46:20;13.50;;;10.10;;
297;SDS011;133;49.626;9.680;2024-03-17T09:48:48;7.20;;;6.57;;
297;SDS011;133;49.626;9.680;2024-03-17T09:51:21;7.53;;;4.33;;
297;SDS011;133;49.626;9.680;2024-03-17T09:53:47;4.40;;;4.10;;
297;SDS011;133;49.626;9.680;2024-03-17T09:56:14;5.90;;;4.40;;
297;SDS011;133;49.626;9.680;2024-03-17T09:58:44;5.03;;;4.37;;
297;SDS011;133;49.626;9.680;2024-03-17T10:01:11;4.77;;;4.37;;
297;SDS011;133;49.626;9.680;2024-03-17T10:06:20;13.23;;;7.73;;
297;SDS011;133;49.626;9.680;2024-03-17T10:08:48;4.73;;;4.43;;
297;SDS011;133;49.626;9.680;2024-03-17T10:11:19;5.10;;;4.37;;
297;SDS011;133;49.626;9.680;2024-03-17T10:13:46;4.27;;;4.07;;
297;SDS011;133;49.626;9.680;2024-03-17T10:16:25;6.70;;;4.87;;
297;SDS011;133;49.626;9.680;2024-03-17T10:22:00;4.70;;;4.00;;
297;SDS011;133;49.626;9.680;2024-03-17T10:24:27;5.10;;;4.10;;
297;SDS011;133;49.626;9.680;2024-03-17T10:26:56;10.30;;;4.80;;
297;SDS011;133;49.626;9.680;2024-03-17T10:29:27;6.70;;;4.93;;
297;SDS011;133;49.626;9.680;2024-03-17T10:32:01;5.47;;;4.83;;
297;SDS011;133;49.626;9.680;2024-03-17T10:34:38;5.70;;;4.43;;
297;SDS011;133;49.626;9.680;2024-03-17T10:39:48;5.50;;;5.20;;
297;SDS011;133;49.626;9.680;2024-03-17T10:42:21;5.70;;;5.10;;
297;SDS011;133;49.626;9.680;2024-03-17T10:44:49;4.43;;;4.03;;
297;SDS011;133;49.626;9.680;2024-03-17T10:47:22;4.40;;;4.10;;
297;SDS011;133;49.626;9.680;2024-03-17T10:49:51;5.70;;;4.90;;
297;SDS011;133;49.626;9.680;2024-03-17T10:52:19;5.30;;;4.67;;
297;SDS011;133;49.626;9.680;2024-03-17T11:00:16;5.93;;;4.37;;
297;SDS011;133;49.626;9.680;2024-03-17T11:02:43;5.60;;;5.23;;
297;SDS011;133;49.626;9.680;2024-03-17T11:05:14;9.27;;;8.23;;
297;SDS011;133;49.626;9.680;2024-03-17T11:07:43;7.20;;;6.10;;
297;SDS011;133;49.626;9.680;2024-03-17T11:10:22;6.33;;;5.57;;
297;SDS011;133;49.626;9.680;2024-03-17T11:13:00;6.03;;;5.40;;
297;SDS011;133;49.626;9.680;2024-03-17T11:17:55;5.27;;;5.00;;
297;SDS011;133;49.626;9.680;2024-03-17T11:20:42;10.23;;;6.17;;
297;SDS011;133;49.626;9.680;2024-03-17T11:23:08;5.10;;;4.80;;
297;SDS011;133;49.626;9.680;2024-03-17T11:28:00;6.10;;;5.73;;
297;SDS011;133;49.626;9.680;2024-03-17T11:38:57;5.20;;;4.90;;
297;SDS011;133;49.626;9.680;2024-03-17T11:51:50;12.30;;;10.70;;
297;SDS011;133;49.626;9.680;2024-03-17T11:54:17;6.17;;;5.90;;
297;SDS011;133;49.626;9.680;2024-03-17T11:56:48;5.57;;;5.30;;
297;SDS011;133;49.626;9.680;2024-03-17T11:59:15;6.10;;;5.20;;
297;SDS011;133;49.626;9.680;2024-03-17T12:01:50;7.43;;;5.73;;
297;SDS011;133;49.626;9.680;2024-03-17T12:04:17;5.83;;;5.53;;
297;SDS011;133;49.626;9.680;2024-03-17T12:06:57;5.10;;;4.57;;
297;SDS011;133;49.626;9.680;2024-03-17T12:09:30;6.40;;;4.83;;
297;SDS011;133;49.626;9.680;2024-03-17T12:14:35;5.30;;;5.00;;
297;SDS011;133;49.626;9.680;2024-03-17T12:17:02;7.13;;;5.37;;
297;SDS011;133;49.626;9.680;2024-03-17T12:19:32;6.50;;;5.20;;
297;SDS011;133;49.626;9.680;2024-03-17T12:21:59;5.63;;;5.33;;
297;SDS011;133;49.626;9.680;2024-03-17T12:24:29;5.77;;;5.43;;
297;SDS011;133;49.626;9.680;2024-03-17T12:26:57;6.10;;;5.27;;
297;SDS011;133;49.626;9.680;2024-03-17T12:29:30;6.17;;;5.07;;
297;SDS011;133;49.626;9.680;2024-03-17T12:32:00;5.03;;;4.73;;
297;SDS011;133;49.626;9.680;2024-03-17T12:34:28;5.77;;;5.10;;
297;SDS011;133;49.626;9.680;2024-03-17T12:36:55;4.93;;;4.20;;
297;SDS011;133;49.626;9.680;2024-03-17T12:42:01;6.13;;;4.87;;
297;SDS011;133;49.626;9.680;2024-03-17T12:44:28;5.40;;;4.50;;
297;SDS011;133;49.626;9.680;2024-03-17T12:46:57;5.70;;;5.40;;
297;SDS011;133;49.626;9.680;2024-03-17T12:49:31;8.87;;;5.87;;
297;SDS011;133;49.626;9.680;2024-03-17T12:52:01;6.90;;;5.90;;
297;SDS011;133;49.626;9.680;2024-03-17T12:54:27;7.17;;;5.70;;
297;SDS011;133;49.626;9.680;2024-03-17T12:57:04;5.87;;;5.60;;
297;SDS011;133;49.626;9.680;2024-03-17T12:59:49;8.40;;;6.20;;
297;SDS011;133;49.626;9.680;2024-03-17T13:02:44;8.07;;;5.37;;
297;SDS011;133;49.626;9.680;2024-03-17T13:05:19;6.43;;;4.70;;
297;SDS011;133;49.626;9.680;2024-03-17T13:07:46;6.00;;;5.70;;
297;SDS011;133;49.626;9.680;2024-03-17T13:10:12;7.80;;;5.70;;
297;SDS011;133;49.626;9.680;2024-03-17T13:12:39;7.60;;;5.60;;
297;SDS011;133;49.626;9.680;2024-03-17T13:15:06;6.97;;;6.10;;
297;SDS011;133;49.626;9.680;2024-03-17T13:17:36;7.63;;;5.93;;
297;SDS011;133;49.626;9.680;2024-03-17T13:20:02;7.43;;;5.67;;
297;SDS011;133;49.626;9.680;2024-03-17T13:22:31;6.20;;;5.23;;
297;SDS011;133;49.626;9.680;2024-03-17T13:24:57;6.00;;;4.90;;
297;SDS011;133;49.626;9.680;2024-03-17T13:27:23;5.43;;;4.80;;
297;SDS011;133;49.626;9.680;2024-03-17T13:29:48;5.73;;;5.43;;
297;SDS011;133;49.626;9.680;2024-03-17T13:32:15;5.00;;;4.70;;
297;SDS011;133;49.626;9.680;2024-03-17T13:34:43;5.50;;;4.50;;
297;SDS011;133;49.626;9.680;2024-03-17T13:37:09;5.07;;;4.80;;
297;SDS011;133;49.626;9.680;2024-03-17T13:39:35;5.37;;;5.07;;
297;SDS011;133;49.626;9.680;2024-03-17T13:42:00;7.00;;;5.40;;
297;SDS011;133;49.626;9.680;2024-03-17T13:44:29;7.70;;;5.27;;
297;SDS011;133;49.626;9.680;2024-03-17T13:46:56;6.67;;;5.40;;
297;SDS011;133;49.626;9.680;2024-03-17T13:49:23;4.70;;;4.43;;
297;SDS011;133;49.626;9.680;2024-03-17T13:51:48;4.67;;;4.43;;
297;SDS011;133;49.626;9.680;2024-03-17T13:54:14;6.80;;;5.20;;
297;SDS011;133;49.626;9.680;2024-03-17T13:56:40;6.13;;;5.20;;
297;SDS011;133;49.626;9.680;2024-03-17T13:59:05;6.27;;;5.57;;
297;SDS011;133;49.626;9.680;2024-03-17T14:01:31;7.10;;;5.57;;
297;SDS011;133;49.626;9.680;2024-03-17T14:03:58;11.83;;;9.13;;
297;SDS011;133;49.626;9.680;2024-03-17T14:06:23;9.10;;;7.30;;
297;SDS011;133;49.626;9.680;2024-03-17T14:08:49;17.80;;;13.07;;
297;SDS011;133;49.626;9.680;2024-03-17T14:11:15;7.63;;;5.80;;
297;SDS011;133;49.626;9.680;2024-03-17T14:13:40;5.97;;;5.70;;
297;SDS011;133;49.626;9.680;2024-03-17T14:16:06;7.20;;;5.97;;
297;SDS011;133;49.626;9.680;2024-03-17T14:18:31;6.13;;;5.40;;
297;SDS011;133;49.626;9.680;2024-03-17T14:21:00;7.87;;;5.30;;
297;SDS011;133;49.626;9.680;2024-03-17T14:23:26;5.83;;;5.20;;
297;SDS011;133;49.626;9.680;2024-03-17T14:25:54;7.10;;;5.77;;
297;SDS011;133;49.626;9.680;2024-03-17T14:28:20;5.73;;;4.17;;
297;SDS011;133;49.626;9.680;2024-03-17T14:30:47;5.67;;;5.30;;
297;SDS011;133;49.626;9.680;2024-03-17T14:33:12;6.30;;;5.20;;
297;SDS011;133;49.626;9.680;2024-03-17T14:35:38;6.57;;;5.57;;
297;SDS011;133;49.626;9.680;2024-03-17T14:38:06;7.13;;;5.50;;
297;SDS011;133;49.626;9.680;2024-03-17T14:40:34;6.00;;;5.70;;
297;SDS011;133;49.626;9.680;2024-03-17T14:43:00;8.07;;;6.23;;
297;SDS011;133;49.626;9.680;2024-03-17T14:45:28;5.83;;;5.40;;
297;SDS011;133;49.626;9.680;2024-03-17T14:47:53;7.10;;;5.33;;
297;SDS011;133;49.626;9.680;2024-03-17T14:50:19;6.20;;;4.90;;
297;SDS011;133;49.626;9.680;2024-03-17T14:52:45;7.40;;;4.90;;
297;SDS011;133;49.626;9.680;2024-03-17T14:55:11;5.60;;;4.93;;
297;SDS011;133;49.626;9.680;2024-03-17T14:57:38;6.00;;;5.13;;
297;SDS011;133;49.626;9.680;2024-03-17T15:00:05;7.53;;;5.17;;
297;SDS011;133;49.626;9.680;2024-03-17T15:02:39;5.97;;;5.67;;
297;SDS011;133;49.626;9.680;2024-03-17T15:05:12;5.30;;;5.00;;
297;SDS011;133;49.626;9.680;2024-03-17T15:07:39;5.30;;;4.60;;
297;SDS011;133;49.626;9.680;2024-03-17T15:10:06;4.80;;;4.50;;
297;SDS011;133;49.626;9.680;2024-03-17T15:12:32;6.30;;;4.30;;
297;SDS011;133;49.626;9.680;2024-03-17T15:14:58;5.13;;;4.90;;
297;SDS011;133;49.626;9.680;2024-03-17T15:17:24;7.47;;;5.10;;
297;SDS011;133;49.626;9.680;2024-03-17T15:19:50;5.80;;;4.80;;
297;SDS011;133;49.626;9.680;2024-03-17T15:22:16;7.50;;;4.90;;
297;SDS011;133;49.626;9.680;2024-03-17T15:24:41;4.77;;;4.47;;
297;SDS011;133;49.626;9.680;2024-03-17T15:27:07;4.63;;;4.33;;
297;SDS011;133;49.626;9.680;2024-03-17T15:29:35;5.20;;;4.50;;
297;SDS011;133;49.626;9.680;2024-03-17T15:32:00;6.50;;;5.00;;
297;SDS011;133;49.626;9.680;2024-03-17T15:34:26;4.50;;;4.20;;
297;SDS011;133;49.626;9.680;2024-03-17T15:36:56;4.60;;;4.30;;
297;SDS011;133;49.626;9.680;2024-03-17T15:39:22;4.93;;;4.00;;
297;SDS011;133;49.626;9.680;2024-03-17T15:41:48;5.67;;;4.00;;
297;SDS011;133;49.626;9.680;2024-03-17T15:44:14;4.90;;;4.60;;
297;SDS011;133;49.626;9.680;2024-03-17T15:46:40;5.57;;;5.27;;
297;SDS011;133;49.626;9.680;2024-03-17T15:49:06;5.87;;;5.03;;
297;SDS011;133;49.626;9.680;2024-03-17T15:51:32;4.60;;;4.30;;
297;SDS011;133;49.626;9.680;2024-03-17T15:53:58;4.57;;;4.27;;
297;SDS011;133;49.626;9.680;2024-03-17T15:56:23;4.33;;;4.03;;
297;SDS011;133;49.626;9.680;2024-03-17T15:58:49;5.17;;;4.00;;
297;SDS011;133;49.626;9.680;2024-03-17T16:01:15;5.47;;;5.17;;
297;SDS011;133;49.626;9.680;2024-03-17T16:03:41;4.93;;;4.60;;
297;SDS011;133;49.626;9.680;2024-03-17T16:06:12;5.30;;;5.00;;
297;SDS011;133;49.626;9.680;2024-03-17T16:08:46;5.67;;;4.90;;
297;SDS011;133;49.626;9.680;2024-03-17T16:11:16;4.90;;;4.20;;
297;SDS011;133;49.626;9.680;2024-03-17T16:13:44;4.60;;;4.40;;
297;SDS011;133;49.626;9.680;2024-03-17T16:16:15;5.30;;;5.00;;
297;SDS011;133;49.626;9.680;2024-03-17T16:18:42;5.27;;;4.90;;
297;SDS011;133;49.626;9.680;2024-03-17T16:21:08;7.23;;;4.80;;
297;SDS011;133;49.626;9.680;2024-03-17T16:23:39;7.80;;;5.33;;
297;SDS011;133;49.626;9.680;2024-03-17T16:26:07;7.23;;;5.80;;
297;SDS011;133;49.626;9.680;2024-03-17T16:28:34;12.03;;;5.60;;
297;SDS011;133;49.626;9.680;2024-03-17T16:31:01;6.30;;;4.80;;